X  Fermer Données météorologiques d'aviation de Metar     LGRX Patras Araxos Agamemnon Airport
Température
35°C Température
16°C Point de rosée
32% Humidité



Vent
5 KM/H
3 MPH
1 M/S
3 KTS



Calme
N
Conditions actuelles

Partiellement nuageux Partiellement nuageux
Pression 1007.79 (hPa) - 29.76 (inHg)
Visibilité 6 (mile) - 9.7 (km)
Aéroport
Code de l'aéroport LGRX

Emplacement: Patras Araxos Agamemnon Airport
Distance: 108 (km)

Metar:
LGRX 231350Z VRB03KT 9999 FEW025 35/16 Q1008 RMK FEW080 BLU

Temps: 23-07-2024 16:50 EEST